Time;durP1;ratioP1;P1;durP2;ratioP2;P2;SDS_P1;SDS_P2;PMS_P1;PMS_P2;Temp;Humidity;BMP_temperature;BMP_pressure;BME280_temperature;BME280_humidity;BME280_pressure;Samples;Min_cycle;Max_cycle;Signal;HPM_P1;HPM_P2
2023/04/08 00:01:42;;;;;;;0.63;0.52;;;;;;;4.73;79.33;99445.09;4915016;28;20410;-54
2023/04/08 00:04:13;;;;;;;1.58;0.60;;;;;;;4.72;79.97;99448.56;4915291;28;20068;-55
2023/04/08 00:06:43;;;;;;;0.60;0.50;;;;;;;4.63;80.34;99443.44;4915091;28;20531;-56
2023/04/08 00:09:16;;;;;;;2.85;0.50;;;;;;;4.68;81.01;99446.00;4915062;28;20091;-57
2023/04/08 00:11:46;;;;;;;0.50;0.50;;;;;;;4.42;80.66;99417.66;4904540;28;20050;-56
2023/04/08 00:14:17;;;;;;;2.45;0.85;;;;;;;4.65;82.21;99452.06;4913895;28;20052;-54
2023/04/08 00:16:48;;;;;;;1.08;0.85;;;;;;;4.80;83.14;99450.25;4915458;28;20052;-54
2023/04/08 00:19:18;;;;;;;2.03;0.80;;;;;;;4.79;82.77;99448.53;4915062;28;20059;-55
2023/04/08 00:21:49;;;;;;;1.58;0.50;;;;;;;4.92;82.35;99450.19;4915132;28;20048;-54
2023/04/08 00:24:22;;;;;;;1.15;0.65;;;;;;;4.87;82.45;99433.84;4914088;28;20040;-55
2023/04/08 00:26:52;;;;;;;1.30;0.63;;;;;;;4.95;82.40;99444.97;4914842;28;20372;-57
2023/04/08 00:29:23;;;;;;;0.50;0.50;;;;;;;4.89;81.53;99432.06;4915997;28;20048;-57
2023/04/08 00:31:53;;;;;;;0.68;0.68;;;;;;;5.18;82.40;99443.06;4914155;28;20439;-55
2023/04/08 00:34:24;;;;;;;0.60;0.60;;;;;;;5.24;80.55;99451.66;4914341;28;20135;-57
2023/04/08 00:36:55;;;;;;;0.90;0.80;;;;;;;5.35;80.62;99450.72;4914174;28;20376;-56
2023/04/08 00:39:27;;;;;;;1.02;0.80;;;;;;;5.66;82.12;99439.22;4911257;28;20049;-56
2023/04/08 00:41:58;;;;;;;0.52;0.52;;;;;;;5.53;80.15;99390.09;4914749;28;20052;-54
2023/04/08 00:44:28;;;;;;;0.98;0.68;;;;;;;5.87;80.14;99439.00;4914057;28;20045;-55
2023/04/08 00:46:59;;;;;;;1.73;0.55;;;;;;;5.87;79.27;99439.00;4912552;28;20059;-56
2023/04/08 00:49:31;;;;;;;1.58;1.10;;;;;;;5.81;77.92;99449.44;4912381;28;20090;-56
2023/04/08 00:52:01;;;;;;;1.10;0.90;;;;;;;5.81;78.58;99450.28;4911495;28;20751;-55
2023/04/08 00:54:34;;;;;;;0.70;0.70;;;;;;;5.84;78.76;99454.56;4910919;28;20066;-56
2023/04/08 00:57:05;;;;;;;1.95;0.70;;;;;;;5.87;78.20;99454.56;4911325;28;20505;-55
2023/04/08 00:59:36;;;;;;;0.80;0.60;;;;;;;5.76;76.90;99441.69;4908013;28;20071;-56
2023/04/08 01:02:15;;;;;;;1.38;0.88;;;;;;;5.77;76.71;99442.56;4911565;28;20063;-54
2023/04/08 01:04:54;;;;;;;0.63;0.63;;;;;;;5.60;77.84;99404.72;4907158;28;20046;-56
2023/04/08 01:07:28;;;;;;;2.78;1.40;;;;;;;5.97;77.09;99455.38;4910638;28;20106;-57
2023/04/08 01:10:06;;;;;;;3.55;1.10;;;;;;;5.72;77.79;99366.59;4900915;28;20048;-56
2023/04/08 01:12:42;;;;;;;0.43;0.43;;;;;;;6.31;76.53;99461.00;4904915;28;20118;-55
2023/04/08 01:15:13;;;;;;;0.77;0.60;;;;;;;6.18;74.21;99444.75;4911499;28;20056;-56
2023/04/08 01:17:45;;;;;;;0.40;0.40;;;;;;;6.18;73.60;99454.25;4911409;28;20048;-56
2023/04/08 01:20:17;;;;;;;1.27;0.70;;;;;;;6.29;73.15;99457.59;4908273;28;20085;-56
2023/04/08 01:23:06;;;;;;;2.00;1.13;;;;;;;6.37;73.78;99450.56;4911630;28;20106;-54
2023/04/08 01:25:39;;;;;;;2.30;1.20;;;;;;;6.52;72.78;99438.28;4900131;28;20083;-56
2023/04/08 01:28:15;;;;;;;1.77;1.05;;;;;;;6.78;72.77;99458.69;4910658;28;20064;-55
2023/04/08 01:30:48;;;;;;;1.17;0.80;;;;;;;6.79;71.46;99448.31;4904157;28;20053;-54
2023/04/08 01:33:21;;;;;;;1.48;0.80;;;;;;;6.76;69.43;99452.66;4910849;28;20054;-55
2023/04/08 01:35:52;;;;;;;0.50;0.50;;;;;;;6.78;68.79;99446.56;4907069;28;20045;-54
2023/04/08 01:38:26;;;;;;;0.50;0.50;;;;;;;6.74;68.54;99444.91;4898127;28;20069;-54
2023/04/08 01:40:57;;;;;;;0.65;0.65;;;;;;;6.66;66.95;99451.94;4888576;28;20045;-56
2023/04/08 01:43:31;;;;;;;1.35;1.10;;;;;;;6.56;66.80;99445.16;4910251;28;20053;-56
2023/04/08 01:46:02;;;;;;;3.75;2.03;;;;;;;6.37;68.22;99408.22;4883632;28;20132;-57
2023/04/08 01:48:34;;;;;;;7.30;3.58;;;;;;;6.09;69.36;99389.50;4885024;28;20183;-57
2023/04/08 01:51:06;;;;;;;1.23;0.95;;;;;;;6.38;70.32;99457.47;4885834;28;20700;-57
2023/04/08 01:53:37;;;;;;;0.68;0.65;;;;;;;6.14;71.08;99431.81;4876917;28;20054;-58
2023/04/08 01:56:12;;;;;;;0.63;0.50;;;;;;;6.33;70.84;99453.22;4883773;28;20059;-57
2023/04/08 01:58:49;;;;;;;0.60;0.60;;;;;;;6.32;71.20;99442.00;4885444;28;20144;-57
2023/04/08 02:01:24;;;;;;;0.95;0.60;;;;;;;6.60;70.32;99446.84;4875454;28;20053;-57
2023/04/08 02:03:58;;;;;;;1.95;0.60;;;;;;;6.66;68.90;99436.34;4883905;28;21086;-57
2023/04/08 02:06:30;;;;;;;0.40;0.40;;;;;;;6.60;68.82;99406.16;4873508;28;20044;-57
2023/04/08 02:09:01;;;;;;;0.60;0.60;;;;;;;6.95;68.52;99422.09;4885479;28;21239;-57
2023/04/08 02:11:32;;;;;;;0.50;0.50;;;;;;;7.12;67.21;99409.72;4885246;28;20051;-57
2023/04/08 02:14:04;;;;;;;0.50;0.50;;;;;;;7.12;63.94;99414.91;4884164;28;20048;-57
2023/04/08 02:16:43;;;;;;;0.50;0.50;;;;;;;6.79;65.38;99411.94;4885360;28;20709;-58
2023/04/08 02:19:19;;;;;;;0.50;0.50;;;;;;;6.67;65.19;99417.31;4886197;28;20157;-57
2023/04/08 02:21:53;;;;;;;0.57;0.45;;;;;;;6.59;65.86;99408.75;4871810;28;20170;-55
2023/04/08 02:24:24;;;;;;;0.50;0.50;;;;;;;6.67;67.31;99402.59;4894909;28;20768;-56
2023/04/08 02:26:57;;;;;;;0.50;0.50;;;;;;;6.89;67.88;99392.75;4899077;28;20208;-54
2023/04/08 02:29:32;;;;;;;0.50;0.50;;;;;;;6.65;66.04;99341.19;4884274;28;20075;-58
2023/04/08 02:32:04;;;;;;;0.40;0.40;;;;;;;6.83;67.89;99402.38;4891812;28;20056;-55
2023/04/08 02:34:36;;;;;;;0.40;0.40;;;;;;;6.78;68.63;99373.88;4907799;28;20466;-56
2023/04/08 02:37:08;;;;;;;0.40;0.40;;;;;;;7.18;67.79;99409.59;4912143;28;20526;-57
2023/04/08 02:39:38;;;;;;;7.45;0.85;;;;;;;7.39;68.28;99402.31;4916065;28;20048;-56
2023/04/08 02:42:09;;;;;;;17.50;9.88;;;;;;;7.76;68.99;99398.22;4916265;28;20048;-56
2023/04/08 02:44:42;;;;;;;10.60;1.88;;;;;;;7.68;67.33;99363.66;4912512;28;20056;-56
2023/04/08 02:47:12;;;;;;;0.82;0.60;;;;;;;7.85;65.08;99396.31;4917360;28;20054;-57
2023/04/08 02:49:43;;;;;;;0.63;0.60;;;;;;;7.92;63.81;99388.34;4921473;28;20453;-57
2023/04/08 02:52:13;;;;;;;0.50;0.50;;;;;;;7.82;63.05;99385.97;4919266;28;20051;-57
2023/04/08 02:54:44;;;;;;;0.90;0.63;;;;;;;7.77;62.71;99393.84;4901729;28;20167;-56
2023/04/08 02:57:15;;;;;;;0.40;0.40;;;;;;;7.50;63.27;99379.63;4910003;28;20077;-57
2023/04/08 02:59:48;;;;;;;0.63;0.60;;;;;;;7.22;63.95;99374.91;4896685;28;20056;-57
2023/04/08 03:02:18;;;;;;;0.50;0.50;;;;;;;6.76;66.66;99380.81;4906776;28;20053;-57
2023/04/08 03:04:49;;;;;;;0.57;0.57;;;;;;;6.40;67.35;99388.25;4910027;28;20048;-57
2023/04/08 03:07:20;;;;;;;0.50;0.50;;;;;;;6.17;67.10;99385.13;4909168;28;20048;-57
2023/04/08 03:09:53;;;;;;;0.60;0.60;;;;;;;5.93;67.58;99371.53;4907872;28;20117;-57
2023/04/08 03:12:26;;;;;;;0.52;0.52;;;;;;;5.45;67.86;99311.59;4908898;28;20052;-57
2023/04/08 03:14:59;;;;;;;0.50;0.50;;;;;;;5.95;68.36;99385.38;4900254;28;20061;-57
2023/04/08 03:17:31;;;;;;;3.47;0.60;;;;;;;5.36;67.95;99267.66;4906667;28;20053;-56
2023/04/08 03:20:03;;;;;;;0.50;0.50;;;;;;;6.01;68.35;99380.09;4906589;28;20044;-57
2023/04/08 03:22:35;;;;;;;0.50;0.50;;;;;;;6.02;67.96;99397.38;4907687;28;20048;-57
2023/04/08 03:25:06;;;;;;;0.60;0.60;;;;;;;6.08;67.93;99374.84;4911386;28;20053;-57
2023/04/08 03:27:37;;;;;;;2.20;0.60;;;;;;;6.14;68.28;99379.94;4906214;28;20798;-57
2023/04/08 03:30:10;;;;;;;1.20;0.57;;;;;;;6.09;68.61;99376.56;4906967;28;20063;-57
2023/04/08 03:32:40;;;;;;;0.60;0.60;;;;;;;6.16;68.93;99373.00;4917900;28;20054;-57
2023/04/08 03:35:11;;;;;;;3.63;0.70;;;;;;;6.12;68.88;99367.00;4913554;28;20492;-54
2023/04/08 03:37:42;;;;;;;0.60;0.60;;;;;;;6.04;68.26;99369.69;4916445;28;20060;-56
2023/04/08 03:40:13;;;;;;;0.60;0.60;;;;;;;6.00;69.40;99368.00;4914904;28;20052;-56
2023/04/08 03:42:44;;;;;;;0.68;0.60;;;;;;;5.80;68.04;99334.50;4915400;28;20044;-56
2023/04/08 03:45:16;;;;;;;0.90;0.70;;;;;;;6.13;68.96;99363.53;4912290;28;20056;-56
2023/04/08 03:47:47;;;;;;;2.63;1.25;;;;;;;6.34;69.22;99357.22;4902118;28;20180;-56
2023/04/08 03:50:17;;;;;;;0.60;0.60;;;;;;;6.31;68.45;99336.47;4912140;28;20048;-55
2023/04/08 03:52:48;;;;;;;2.17;0.90;;;;;;;6.26;68.93;99353.84;4911983;28;20053;-53
2023/04/08 03:55:19;;;;;;;1.00;0.90;;;;;;;6.37;69.58;99354.56;4911836;28;20470;-52
2023/04/08 03:57:49;;;;;;;3.22;0.80;;;;;;;5.79;68.95;99256.75;4911559;28;20056;-56
2023/04/08 04:00:22;;;;;;;1.63;1.00;;;;;;;6.22;67.73;99352.19;4910757;28;20045;-55
2023/04/08 04:02:54;;;;;;;1.33;0.80;;;;;;;6.23;69.52;99349.56;4910253;28;20068;-55
2023/04/08 04:05:25;;;;;;;1.30;1.08;;;;;;;6.23;68.11;99327.94;4910787;28;21290;-54
2023/04/08 04:07:57;;;;;;;0.93;0.90;;;;;;;6.12;68.43;99341.06;4908282;28;20571;-55
2023/04/08 04:10:27;;;;;;;1.65;0.85;;;;;;;6.11;68.76;99348.88;4911377;28;20583;-56
2023/04/08 04:12:58;;;;;;;1.55;0.80;;;;;;;6.09;68.05;99350.63;4911375;28;20052;-55
2023/04/08 04:15:30;;;;;;;0.82;0.70;;;;;;;6.07;68.52;99357.59;4908024;28;20055;-56
2023/04/08 04:18:01;;;;;;;3.35;1.23;;;;;;;6.09;69.83;99355.81;4907328;28;20063;-57
2023/04/08 04:20:32;;;;;;;0.80;0.80;;;;;;;6.05;67.79;99345.47;4907472;28;20048;-54
2023/04/08 04:23:02;;;;;;;0.77;0.77;;;;;;;6.12;68.40;99353.19;4907784;28;20052;-53
2023/04/08 04:25:33;;;;;;;2.05;0.77;;;;;;;6.16;66.69;99357.44;4908381;28;20105;-53
2023/04/08 04:28:03;;;;;;;1.10;1.00;;;;;;;6.08;68.20;99354.09;4907374;28;20056;-52
2023/04/08 04:30:38;;;;;;;1.00;0.90;;;;;;;5.68;67.11;99307.88;4910651;28;20541;-54
2023/04/08 04:33:08;;;;;;;1.35;0.95;;;;;;;5.88;67.14;99351.72;4908453;28;20051;-52
2023/04/08 04:35:40;;;;;;;0.60;0.60;;;;;;;5.80;68.78;99369.94;4920526;28;20044;-55
2023/04/08 04:38:11;;;;;;;0.80;0.70;;;;;;;5.85;69.00;99357.78;4933931;28;20143;-54
2023/04/08 04:40:43;;;;;;;0.60;0.60;;;;;;;5.76;68.69;99357.88;4932132;28;20044;-53
2023/04/08 04:43:13;;;;;;;1.50;0.60;;;;;;;5.77;69.63;99334.56;4933101;28;20067;-54
2023/04/08 04:45:46;;;;;;;0.82;0.80;;;;;;;5.88;72.05;99346.53;4921504;28;20063;-57
2023/04/08 04:48:17;;;;;;;2.60;0.75;;;;;;;5.74;70.99;99325.94;4920537;28;20133;-56
2023/04/08 04:50:57;;;;;;;1.65;0.60;;;;;;;5.77;71.41;99344.94;4910362;28;20114;-57
2023/04/08 04:53:27;;;;;;;;;;;;;;;5.70;70.66;99350.19;4901804;28;20113;-57
2023/04/08 04:56:00;;;;;;;1.40;1.08;;;;;;;5.75;72.16;99335.44;4911976;28;19989;-56
2023/04/08 04:58:32;;;;;;;4.25;0.80;;;;;;;6.04;71.55;99343.78;4908745;28;20179;-56
2023/04/08 05:01:05;;;;;;;1.05;0.90;;;;;;;6.16;70.69;99339.28;4910504;28;20131;-57
2023/04/08 05:03:37;;;;;;;2.75;0.88;;;;;;;6.11;70.64;99333.31;4902908;28;20058;-58
2023/04/08 05:06:09;;;;;;;1.85;0.80;;;;;;;6.10;68.90;99336.78;4911851;28;20059;-57
2023/04/08 05:08:40;;;;;;;0.75;0.75;;;;;;;6.22;69.70;99352.19;4910537;28;20145;-56
2023/04/08 05:11:12;;;;;;;0.82;0.70;;;;;;;6.20;69.22;99343.56;4910343;28;20128;-56
2023/04/08 05:13:44;;;;;;;3.22;0.80;;;;;;;6.12;68.71;99340.22;4910732;28;20056;-56
2023/04/08 05:16:20;;;;;;;1.45;0.70;;;;;;;6.09;69.28;99337.66;4900462;28;20060;-55
2023/04/08 05:18:52;;;;;;;0.70;0.70;;;;;;;5.96;69.64;99335.22;4910909;28;20113;-56
2023/04/08 05:21:24;;;;;;;0.98;0.70;;;;;;;5.81;71.67;99322.41;4910026;28;20397;-58
2023/04/08 05:23:56;;;;;;;0.93;0.70;;;;;;;5.91;71.41;99347.34;4908522;28;20125;-55
2023/04/08 05:26:28;;;;;;;2.45;0.80;;;;;;;5.88;70.84;99346.53;4910166;28;20336;-57
2023/04/08 05:28:59;;;;;;;1.65;0.80;;;;;;;5.75;71.79;99356.19;4910021;28;20063;-57
2023/04/08 05:31:33;;;;;;;0.98;0.88;;;;;;;5.76;70.81;99363.06;4908553;28;20691;-56
2023/04/08 05:34:04;;;;;;;0.70;0.70;;;;;;;5.72;70.08;99366.59;4907766;28;20780;-57
2023/04/08 05:36:36;;;;;;;0.70;0.70;;;;;;;5.69;70.82;99376.97;4892644;28;20175;-56
2023/04/08 05:39:08;;;;;;;0.80;0.80;;;;;;;5.52;70.72;99354.72;4898573;28;20053;-56
2023/04/08 05:41:39;;;;;;;2.70;0.70;;;;;;;5.65;70.52;99365.78;4896791;28;20110;-56
2023/04/08 05:44:11;;;;;;;0.98;0.90;;;;;;;5.63;70.04;99378.75;4897784;28;20079;-57
2023/04/08 05:46:44;;;;;;;5.18;0.98;;;;;;;5.67;70.75;99381.34;4896773;28;20048;-56
2023/04/08 05:49:16;;;;;;;1.63;0.98;;;;;;;5.66;70.91;99377.03;4896380;28;20093;-57
2023/04/08 05:51:48;;;;;;;1.48;0.90;;;;;;;5.72;69.96;99387.34;4897287;28;20816;-56
2023/04/08 05:54:19;;;;;;;0.70;0.70;;;;;;;5.67;68.41;99389.13;4897845;28;20139;-57
2023/04/08 05:56:51;;;;;;;2.78;1.00;;;;;;;5.68;69.68;99391.69;4898170;28;20719;-56
2023/04/08 05:59:23;;;;;;;5.32;1.20;;;;;;;5.70;68.08;99389.09;4895842;28;20538;-57
2023/04/08 06:01:56;;;;;;;13.15;1.77;;;;;;;5.67;68.24;99389.13;4897657;28;20055;-57
2023/04/08 06:04:28;;;;;;;1.83;1.30;;;;;;;5.79;68.11;99388.97;4887899;28;20053;-56
2023/04/08 06:07:03;;;;;;;2.58;1.70;;;;;;;5.98;67.90;99400.03;4898545;28;20048;-57
2023/04/08 06:09:38;;;;;;;2.33;1.20;;;;;;;5.81;67.22;99367.31;4896783;28;20467;-58
2023/04/08 06:12:10;;;;;;;2.63;1.30;;;;;;;6.15;67.53;99397.25;4886926;28;20607;-56
2023/04/08 06:14:42;;;;;;;1.17;1.00;;;;;;;6.04;69.51;99406.00;4893481;28;20056;-56
2023/04/08 06:17:16;;;;;;;0.98;0.88;;;;;;;6.02;70.91;99401.72;4896774;28;20045;-57
2023/04/08 06:19:47;;;;;;;1.98;0.95;;;;;;;6.02;71.43;99402.56;4885759;28;20048;-56
2023/04/08 06:22:19;;;;;;;1.50;1.20;;;;;;;5.83;72.02;99364.72;4895394;28;20048;-56
2023/04/08 06:24:51;;;;;;;3.25;1.70;;;;;;;6.08;71.71;99416.34;4897797;28;20051;-57
2023/04/08 06:27:22;;;;;;;5.75;3.15;;;;;;;5.88;72.04;99414.78;4894830;28;20530;-57
2023/04/08 06:29:54;;;;;;;3.00;1.63;;;;;;;5.77;72.18;99416.66;4894529;28;20143;-57
2023/04/08 06:32:28;;;;;;;2.25;1.30;;;;;;;5.67;71.68;99415.03;4893553;28;20066;-57
2023/04/08 06:35:00;;;;;;;3.97;1.60;;;;;;;5.65;71.36;99411.59;4897941;28;20059;-56
2023/04/08 06:37:33;;;;;;;2.58;1.50;;;;;;;5.65;71.67;99417.63;4895611;28;20519;-57
2023/04/08 06:40:05;;;;;;;1.40;1.30;;;;;;;5.70;71.86;99425.38;4897605;28;20045;-57
2023/04/08 06:42:37;;;;;;;2.00;1.23;;;;;;;6.01;72.10;99434.53;4891722;28;20451;-57
2023/04/08 06:45:09;;;;;;;4.95;1.52;;;;;;;6.17;71.44;99437.00;4896720;28;20148;-56
2023/04/08 06:47:42;;;;;;;2.67;1.55;;;;;;;6.18;69.91;99433.50;4897170;28;20063;-56
2023/04/08 06:50:14;;;;;;;9.30;2.45;;;;;;;6.15;69.60;99433.56;4897321;28;20453;-58
2023/04/08 06:52:46;;;;;;;1.92;1.60;;;;;;;6.20;70.04;99429.16;4893688;28;20129;-58
2023/04/08 06:55:18;;;;;;;4.57;2.47;;;;;;;6.36;68.81;99438.47;4897208;28;20179;-56
2023/04/08 06:57:50;;;;;;;2.90;1.40;;;;;;;6.30;68.31;99438.56;4897157;28;20119;-57
2023/04/08 07:00:29;;;;;;;3.85;2.22;;;;;;;6.21;68.88;99444.69;4896848;28;20063;-55
2023/04/08 07:03:06;;;;;;;3.80;2.08;;;;;;;6.17;68.59;99442.19;4886354;28;20546;-57
2023/04/08 07:05:38;;;;;;;2.83;1.67;;;;;;;6.04;70.14;99408.59;4889044;28;20121;-57
2023/04/08 07:08:08;;;;;;;3.92;1.48;;;;;;;6.40;70.00;99445.34;4897914;28;20896;-56
2023/04/08 07:10:39;;;;;;;3.65;1.60;;;;;;;6.42;69.57;99447.94;4896426;28;20060;-56
2023/04/08 07:13:10;;;;;;;4.53;1.80;;;;;;;6.54;69.45;99458.16;4896039;28;20060;-57
2023/04/08 07:15:41;;;;;;;2.55;1.70;;;;;;;6.30;69.11;99402.22;4896280;28;20135;-55
2023/04/08 07:18:14;;;;;;;3.17;1.50;;;;;;;6.60;66.66;99454.63;4896662;28;20174;-56
2023/04/08 07:20:45;;;;;;;4.70;1.95;;;;;;;6.51;66.12;99462.50;4896677;28;20430;-57
2023/04/08 07:23:16;;;;;;;4.97;2.05;;;;;;;6.17;64.34;99452.56;4893926;28;20060;-56
2023/04/08 07:25:46;;;;;;;3.65;1.77;;;;;;;6.05;64.14;99464.78;4900072;28;20117;-56
2023/04/08 07:28:17;;;;;;;4.43;2.10;;;;;;;5.79;64.82;99456.34;4896938;28;20719;-57
2023/04/08 07:30:48;;;;;;;4.25;1.65;;;;;;;5.79;65.05;99467.63;4895972;28;20121;-57
2023/04/08 07:33:28;;;;;;;3.33;1.80;;;;;;;5.69;64.88;99472.88;4896837;28;20475;-56
2023/04/08 07:36:11;;;;;;;2.97;1.77;;;;;;;5.67;65.24;99472.91;4897091;28;20391;-57
2023/04/08 07:38:46;;;;;;;3.33;1.73;;;;;;;5.62;65.65;99470.34;4895831;28;20084;-56
2023/04/08 07:41:17;;;;;;;2.85;1.90;;;;;;;5.69;65.18;99476.34;4901205;28;20049;-57
2023/04/08 07:43:48;;;;;;;3.00;1.60;;;;;;;5.73;65.56;99487.53;4901106;28;21865;-57
2023/04/08 07:46:19;;;;;;;4.05;2.13;;;;;;;5.55;66.58;99476.47;4901474;28;20058;-57
2023/04/08 07:48:52;;;;;;;4.95;2.08;;;;;;;5.51;67.83;99490.31;4901054;28;20080;-57
2023/04/08 07:51:23;;;;;;;8.10;2.13;;;;;;;5.41;68.19;99481.75;4901957;28;20072;-57
2023/04/08 07:53:53;;;;;;;5.03;2.08;;;;;;;5.27;68.90;99482.75;4898816;28;20072;-57
2023/04/08 07:56:25;;;;;;;3.42;1.98;;;;;;;5.10;69.45;99488.03;4890267;28;20048;-56
2023/04/08 07:58:55;;;;;;;3.35;1.70;;;;;;;4.97;70.43;99489.84;4899055;28;20110;-57
2023/04/08 08:01:29;;;;;;;2.17;1.88;;;;;;;4.87;72.36;99499.41;4904500;28;20046;-56
2023/04/08 08:04:02;;;;;;;5.03;1.90;;;;;;;4.70;74.27;99486.53;4900924;28;20044;-57
2023/04/08 08:06:33;;;;;;;2.60;1.85;;;;;;;4.62;75.88;99488.31;4904089;28;20041;-57
2023/04/08 08:09:04;;;;;;;2.58;2.05;;;;;;;4.59;77.21;99501.25;4905298;28;20382;-57
2023/04/08 08:11:34;;;;;;;3.50;2.10;;;;;;;4.53;79.07;99498.69;4904267;28;20052;-57
2023/04/08 08:14:06;;;;;;;3.72;2.00;;;;;;;4.46;79.98;99513.38;4902352;28;20088;-56
2023/04/08 08:16:37;;;;;;;2.92;1.88;;;;;;;4.41;80.69;99506.50;4904996;28;20048;-56
2023/04/08 08:19:11;;;;;;;4.97;2.85;;;;;;;3.65;81.46;99397.28;4903931;28;20558;-57
2023/04/08 08:21:41;;;;;;;4.40;2.20;;;;;;;4.25;82.31;99506.56;4903442;28;20467;-56
2023/04/08 08:24:12;;;;;;;3.92;2.30;;;;;;;4.09;82.62;99497.09;4901192;28;20135;-56
2023/04/08 08:26:43;;;;;;;3.50;2.00;;;;;;;4.11;82.94;99516.06;4904555;28;20052;-57
2023/04/08 08:29:15;;;;;;;3.45;2.15;;;;;;;4.02;83.72;99510.91;4900992;28;20283;-57
2023/04/08 08:31:47;;;;;;;3.70;2.50;;;;;;;4.00;83.63;99518.69;4900556;28;20130;-57
2023/04/08 08:34:19;;;;;;;3.70;2.47;;;;;;;3.98;84.04;99514.38;4904324;28;20045;-58
2023/04/08 08:36:50;;;;;;;5.20;2.53;;;;;;;3.95;83.54;99509.22;4899373;28;20356;-57
2023/04/08 08:39:21;;;;;;;3.55;2.35;;;;;;;3.92;83.33;99514.38;4897314;28;20044;-57
2023/04/08 08:41:51;;;;;;;3.83;2.60;;;;;;;3.92;83.04;99524.69;4898460;28;20514;-57
2023/04/08 08:44:22;;;;;;;4.25;2.10;;;;;;;3.86;82.89;99526.44;4900134;28;20659;-57
2023/04/08 08:46:53;;;;;;;4.70;2.22;;;;;;;3.80;82.79;99536.78;4898759;28;20682;-57
2023/04/08 08:49:26;;;;;;;6.32;2.70;;;;;;;3.77;82.84;99547.13;4898666;28;20053;-57
2023/04/08 08:51:57;;;;;;;3.88;2.30;;;;;;;3.73;82.78;99548.00;4886264;28;20058;-57
2023/04/08 08:54:28;;;;;;;4.15;2.42;;;;;;;3.67;82.40;99555.75;4891158;28;20135;-57
2023/04/08 08:56:59;;;;;;;1.95;1.65;;;;;;;3.61;80.92;99545.41;5045729;23;20049;-58
2023/04/08 08:59:31;;;;;;;3.90;1.95;;;;;;;3.45;80.02;99535.06;4903739;28;20052;-57
2023/04/08 09:02:36;;;;;;;2.15;1.50;;;;;;;3.46;80.14;99536.78;4905453;28;20076;-58
2023/04/08 09:05:19;;;;;;;2.05;1.70;;;;;;;3.36;79.95;99534.19;4881608;28;20728;-57
2023/04/08 09:07:50;;;;;;;1.92;1.67;;;;;;;3.27;79.88;99537.63;4901159;28;20057;-58
2023/04/08 09:10:30;;;;;;;1.92;1.50;;;;;;;3.14;79.72;99528.13;4903043;28;20052;-57
2023/04/08 09:13:01;;;;;;;;;;;;;;;3.10;80.19;99549.66;4885543;28;20060;-56
2023/04/08 09:15:32;;;;;;;2.85;1.50;;;;;;;3.01;80.06;99543.59;4902482;28;20027;-58
2023/04/08 09:18:04;;;;;;;3.80;1.50;;;;;;;2.93;80.23;99553.03;4902499;28;20063;-56
2023/04/08 09:20:37;;;;;;;1.90;1.52;;;;;;;2.86;80.43;99559.03;4901284;28;20063;-58
2023/04/08 09:23:08;;;;;;;2.70;1.50;;;;;;;2.72;80.58;99540.94;4889328;28;20063;-57
2023/04/08 09:25:40;;;;;;;3.50;1.42;;;;;;;2.68;80.60;99554.66;4900460;28;20462;-58
2023/04/08 09:28:21;;;;;;;1.70;1.42;;;;;;;2.62;81.01;99558.91;4897996;28;20056;-54
2023/04/08 09:30:53;;;;;;;2.63;1.70;;;;;;;2.56;81.51;99563.19;4889961;28;20450;-58
2023/04/08 09:33:32;;;;;;;1.90;1.70;;;;;;;2.47;81.36;99554.56;4899701;28;21381;-59
2023/04/08 09:36:05;;;;;;;3.13;1.88;;;;;;;2.43;81.75;99566.59;4890056;28;20048;-59
2023/04/08 09:38:37;;;;;;;2.90;2.30;;;;;;;2.39;82.12;99572.56;4894969;28;20660;-57
2023/04/08 09:41:09;;;;;;;2.15;1.67;;;;;;;2.32;81.88;99571.69;4903455;28;20051;-59
2023/04/08 09:43:47;;;;;;;4.45;2.70;;;;;;;2.32;82.15;99575.97;4902320;28;20052;-58
2023/04/08 09:46:26;;;;;;;4.30;2.55;;;;;;;2.29;82.15;99575.94;4891917;28;20060;-58
2023/04/08 09:49:04;;;;;;;5.03;3.40;;;;;;;2.08;81.92;99562.06;4889833;28;20107;-59
2023/04/08 09:51:46;;;;;;;7.60;3.50;;;;;;;2.18;82.01;99587.91;4902232;28;20470;-59
2023/04/08 09:54:22;;;;;;;7.47;4.05;;;;;;;2.10;82.11;99587.88;4893888;28;20232;-58
2023/04/08 09:57:03;;;;;;;13.00;7.38;;;;;;;1.92;82.60;99580.84;4898752;28;20135;-58
2023/04/08 09:59:41;;;;;;;5.95;4.18;;;;;;;1.85;83.23;99599.72;4874793;28;20053;-58
2023/04/08 10:02:24;;;;;;;7.75;3.88;;;;;;;1.67;84.45;99606.44;4892484;28;20140;-58
2023/04/08 10:04:57;;;;;;;5.55;3.80;;;;;;;1.56;85.58;99608.03;4889359;28;20061;-59
2023/04/08 10:07:33;;;;;;;4.43;2.83;;;;;;;1.48;86.33;99609.66;4899225;28;20048;-58
2023/04/08 10:10:06;;;;;;;4.30;3.42;;;;;;;1.26;86.78;99599.16;4901836;28;20063;-58
2023/04/08 10:12:41;;;;;;;3.88;2.75;;;;;;;1.17;88.02;99616.19;4891799;28;20052;-58
2023/04/08 10:15:27;;;;;;;3.60;2.53;;;;;;;0.91;89.29;99610.75;4899212;28;20056;-57
2023/04/08 10:18:36;;;;;;;6.85;4.10;;;;;;;0.74;90.48;99605.41;4880869;28;20048;-57
2023/04/08 10:21:38;;;;;;;8.77;4.03;;;;;;;0.57;91.90;99594.88;4890624;28;20818;-57
2023/04/08 10:24:12;;;;;;;5.18;3.17;;;;;;;0.45;93.36;99589.59;4877428;28;20040;-58
2023/04/08 10:26:44;;;;;;;5.70;3.38;;;;;;;0.47;93.83;99608.47;4900903;28;20051;-58
2023/04/08 10:29:47;;;;;;;7.53;5.53;;;;;;;0.45;94.05;99615.28;4899336;28;20076;-57
2023/04/08 10:32:31;;;;;;;10.07;4.68;;;;;;;0.47;94.41;99613.59;4879171;28;20121;-57
2023/04/08 10:35:03;;;;;;;4.60;3.67;;;;;;;0.41;94.67;99615.25;4890790;28;20498;-57
2023/04/08 10:37:34;;;;;;;3.85;3.08;;;;;;;0.28;94.29;99603.06;4901072;28;20403;-57
2023/04/08 10:40:19;;;;;;;4.63;2.40;;;;;;;0.32;94.49;99625.38;4899441;28;20059;-57
2023/04/08 10:42:56;;;;;;;4.82;3.17;;;;;;;0.01;94.40;99597.53;4891247;28;20071;-58
2023/04/08 10:45:36;;;;;;;4.13;2.65;;;;;;;0.14;94.76;99635.41;4890736;28;20412;-57
2023/04/08 10:48:15;;;;;;;5.70;4.00;;;;;;;0.12;95.32;99637.94;4889329;28;20084;-58
2023/04/08 10:50:54;;;;;;;6.85;4.82;;;;;;;0.11;95.29;99643.06;4892936;28;20066;-56
2023/04/08 10:53:29;;;;;;;35.97;17.10;;;;;;;-0.04;94.91;99626.56;4899552;28;20057;-56
2023/04/08 10:56:12;;;;;;;35.25;16.50;;;;;;;-0.09;95.48;99648.75;4891068;28;20046;-58
2023/04/08 10:58:50;;;;;;;19.10;9.23;;;;;;;-0.12;95.47;99633.28;4888779;28;20049;-57
2023/04/08 11:01:22;;;;;;;;;;;;;;;-0.14;95.63;99642.66;4891597;28;20114;-57
2023/04/08 11:03:56;;;;;;;6.40;3.90;;;;;;;-0.18;95.54;99646.00;4897947;28;19928;-57
2023/04/08 11:06:27;;;;;;;2.90;2.42;;;;;;;-0.29;95.57;99650.09;4888814;28;20129;-57
2023/04/08 11:09:04;;;;;;;5.45;2.60;;;;;;;-0.52;96.32;99642.88;4901221;28;20048;-57
2023/04/08 11:11:41;;;;;;;3.22;2.40;;;;;;;-0.58;97.06;99658.13;4901308;28;22326;-57
2023/04/08 11:14:11;;;;;;;3.58;2.60;;;;;;;-0.60;97.03;99657.25;4900935;28;20086;-57
2023/04/08 11:16:43;;;;;;;3.72;2.75;;;;;;;-0.54;97.46;99665.06;4899471;28;20064;-57
2023/04/08 11:19:17;;;;;;;3.45;2.55;;;;;;;-0.52;98.01;99668.53;4901386;28;20048;-57
2023/04/08 11:21:48;;;;;;;3.05;2.22;;;;;;;-0.49;97.78;99650.63;4890729;28;20057;-56
2023/04/08 11:24:22;;;;;;;3.53;2.72;;;;;;;-0.49;97.58;99666.00;4899118;28;20475;-57
2023/04/08 11:26:58;;;;;;;3.85;2.80;;;;;;;-0.49;97.39;99666.00;4900279;28;20053;-56
2023/04/08 11:29:32;;;;;;;3.55;2.33;;;;;;;-0.52;97.18;99668.53;4889733;28;20052;-57
2023/04/08 11:32:04;;;;;;;4.80;2.65;;;;;;;-0.55;97.30;99668.47;4900601;28;20924;-57
2023/04/08 11:34:39;;;;;;;5.38;3.63;;;;;;;-0.58;97.00;99658.13;4899399;28;20057;-57
2023/04/08 11:37:12;;;;;;;4.45;3.10;;;;;;;-0.60;96.91;99659.81;4902120;28;20044;-57
2023/04/08 11:39:44;;;;;;;2.92;2.58;;;;;;;-0.81;96.68;99628.63;4904238;28;20057;-57
2023/04/08 11:42:29;;;;;;;3.42;2.50;;;;;;;-0.57;96.19;99659.88;4902583;28;20044;-56
2023/04/08 11:45:10;;;;;;;2.35;1.90;;;;;;;-0.50;95.89;99656.59;4894716;28;20056;-57
2023/04/08 11:47:41;;;;;;;4.78;1.90;;;;;;;-0.54;95.73;99649.66;4893646;28;20053;-56
2023/04/08 11:50:11;;;;;;;2.30;1.67;;;;;;;-0.55;95.46;99631.66;4903711;28;20118;-57
2023/04/08 11:52:43;;;;;;;2.92;1.60;;;;;;;-0.58;94.92;99622.22;4904590;28;20053;-57
2023/04/08 11:55:24;;;;;;;2.22;1.60;;;;;;;-0.41;94.61;99634.50;4896498;28;20124;-57
2023/04/08 11:58:04;;;;;;;1.92;1.65;;;;;;;-0.31;93.48;99667.19;4894343;28;20064;-57
2023/04/08 12:00:36;;;;;;;2.15;1.77;;;;;;;-0.34;93.47;99662.00;4902308;28;20836;-57
2023/04/08 12:03:11;;;;;;;2.05;1.70;;;;;;;-0.34;93.19;99651.72;4908402;28;20101;-56
2023/04/08 12:05:42;;;;;;;3.00;2.08;;;;;;;-0.33;93.12;99643.19;4904732;28;20036;-57
2023/04/08 12:08:16;;;;;;;2.78;1.40;;;;;;;-0.37;92.94;99641.41;4902974;28;20055;-57
2023/04/08 12:10:47;;;;;;;2.55;1.80;;;;;;;-0.41;92.88;99647.31;4894513;28;20063;-57